Time;durP1;ratioP1;P1;durP2;ratioP2;P2;SDS_P1;SDS_P2;PMS_P1;PMS_P2;Temp;Humidity;BMP_temperature;BMP_pressure;BME280_temperature;BME280_humidity;BME280_pressure;Samples;Min_cycle;Max_cycle;Signal;HPM_P1;HPM_P2
2022/04/06 00:00:26;;;;;;;8.50;1.42;;;;;;;;;;5068798;28;20191;-87
2022/04/06 00:02:54;;;;;;;8.63;1.05;;;;;;;;;;5067059;28;20048;-86
2022/04/06 00:05:20;;;;;;;6.03;0.80;;;;;;;;;;5069670;28;20037;-86
2022/04/06 00:07:49;;;;;;;6.18;0.77;;;;;;;;;;4757930;28;10000944;-86
2022/04/06 00:10:15;;;;;;;7.95;1.02;;;;;;;;;;4722580;28;10000323;-87
2022/04/06 00:12:42;;;;;;;10.20;1.38;;;;;;;;;;5070022;28;20483;-86
2022/04/06 00:15:11;;;;;;;8.45;1.38;;;;;;;;;;5065033;28;20028;-87
2022/04/06 00:17:38;;;;;;;10.65;1.55;;;;;;;;;;5093678;28;20040;-85
2022/04/06 00:20:05;;;;;;;7.90;1.10;;;;;;;;;;5065253;28;20024;-86
2022/04/06 00:22:33;;;;;;;11.70;1.30;;;;;;;;;;5064276;28;20067;-86
2022/04/06 00:25:01;;;;;;;8.02;1.17;;;;;;;;;;5064341;28;20097;-87
2022/04/06 00:27:29;;;;;;;9.45;1.38;;;;;;;;;;5068952;28;20113;-87
2022/04/06 00:29:57;;;;;;;8.80;1.40;;;;;;;;;;5050461;28;20102;-86
2022/04/06 00:32:26;;;;;;;9.40;1.27;;;;;;;;;;5073466;28;20036;-87
2022/04/06 00:37:40;;;;;;;9.30;1.88;;;;;;;;;;5085145;28;20039;-86
2022/04/06 00:40:10;;;;;;;10.20;1.75;;;;;;;;;;5055778;28;20032;-86
2022/04/06 00:42:43;;;;;;;8.32;1.50;;;;;;;;;;5059404;28;20068;-88
2022/04/06 00:45:09;;;;;;;6.97;1.02;;;;;;;;;;5070607;28;20042;-86
2022/04/06 00:47:38;;;;;;;7.22;1.05;;;;;;;;;;5062441;28;20043;-86
2022/04/06 00:50:05;;;;;;;7.55;1.38;;;;;;;;;;5070281;28;20032;-86
2022/04/06 00:52:33;;;;;;;9.40;1.10;;;;;;;;;;5086166;28;20046;-86
2022/04/06 00:55:00;;;;;;;8.48;1.50;;;;;;;;;;5070061;28;20081;-86
2022/04/06 00:57:45;;;;;;;17.23;1.92;;;;;;;;;;5067029;28;20059;-86
2022/04/06 01:00:22;;;;;;;6.90;1.55;;;;;;;;;;5064122;28;20123;-86
2022/04/06 01:02:48;;;;;;;11.35;1.35;;;;;;;;;;5068705;28;20391;-86
2022/04/06 01:05:15;;;;;;;10.32;1.33;;;;;;;;;;5066676;28;20044;-88
2022/04/06 01:07:43;;;;;;;9.27;1.08;;;;;;;;;;5064846;28;20115;-87
2022/04/06 01:10:09;;;;;;;8.63;1.42;;;;;;;;;;5069393;28;20038;-87
2022/04/06 01:12:36;;;;;;;8.48;1.15;;;;;;;;;;5063172;28;20063;-87
2022/04/06 01:15:06;;;;;;;6.68;0.93;;;;;;;;;;5061612;28;20127;-86
2022/04/06 01:17:35;;;;;;;9.57;1.13;;;;;;;;;;5066351;28;20041;-86
2022/04/06 01:20:09;;;;;;;10.25;1.35;;;;;;;;;;5080551;28;20032;-86
2022/04/06 01:22:36;;;;;;;8.80;1.33;;;;;;;;;;5071589;28;20064;-85
2022/04/06 01:25:03;;;;;;;8.80;0.95;;;;;;;;;;5063416;28;20040;-86
2022/04/06 01:27:31;;;;;;;11.75;1.40;;;;;;;;;;5062868;28;20887;-86
2022/04/06 01:29:57;;;;;;;8.80;1.10;;;;;;;;;;5066913;28;21604;-86
2022/04/06 01:32:30;;;;;;;5.75;1.10;;;;;;;;;;5068190;28;20043;-86
2022/04/06 01:34:56;;;;;;;6.35;1.33;;;;;;;;;;5064029;28;20039;-86
2022/04/06 01:37:29;;;;;;;10.23;1.35;;;;;;;;;;5060064;28;20479;-85
2022/04/06 01:39:56;;;;;;;9.60;1.35;;;;;;;;;;5068830;28;20032;-86
2022/04/06 01:42:22;;;;;;;10.23;1.70;;;;;;;;;;5069250;28;20029;-85
2022/04/06 01:44:49;;;;;;;8.38;1.45;;;;;;;;;;5074410;28;20127;-85
2022/04/06 01:47:16;;;;;;;13.15;1.40;;;;;;;;;;5075966;28;20606;-85
2022/04/06 01:52:29;;;;;;;10.85;1.88;;;;;;;;;;5086267;28;20106;-85
2022/04/06 01:55:00;;;;;;;10.35;1.83;;;;;;;;;;5066861;28;20032;-85
2022/04/06 01:57:27;;;;;;;9.60;1.85;;;;;;;;;;5084960;28;20392;-84
2022/04/06 01:59:56;;;;;;;11.77;1.90;;;;;;;;;;5065059;28;20031;-86
2022/04/06 02:02:25;;;;;;;6.95;1.65;;;;;;;;;;5080440;28;20040;-86
2022/04/06 02:05:16;;;;;;;15.02;2.40;;;;;;;;;;5063017;28;20024;-87
2022/04/06 02:07:50;;;;;;;11.57;1.63;;;;;;;;;;5000598;28;20038;-85
2022/04/06 02:10:18;;;;;;;13.88;2.25;;;;;;;;;;5063512;28;20024;-87
2022/04/06 02:12:57;;;;;;;16.20;2.42;;;;;;;;;;5089053;28;20055;-86
2022/04/06 02:15:24;;;;;;;12.57;2.30;;;;;;;;;;4733862;28;9999963;-86
2022/04/06 02:17:54;;;;;;;16.45;2.35;;;;;;;;;;5077153;28;20304;-87
2022/04/06 02:20:21;;;;;;;14.88;2.00;;;;;;;;;;5074940;28;20028;-87
2022/04/06 02:22:47;;;;;;;14.00;2.83;;;;;;;;;;5066107;28;20479;-87
2022/04/06 02:25:14;;;;;;;10.55;2.22;;;;;;;;;;5088867;28;20032;-86
2022/04/06 02:27:44;;;;;;;12.00;1.90;;;;;;;;;;5059412;28;20048;-87
2022/04/06 02:30:11;;;;;;;12.05;1.58;;;;;;;;;;5069581;28;20483;-87
2022/04/06 02:32:37;;;;;;;12.95;1.02;;;;;;;;;;5063457;28;20032;-87
2022/04/06 02:35:03;;;;;;;6.35;1.65;;;;;;;;;;5073872;28;20063;-86
2022/04/06 02:37:30;;;;;;;13.18;2.20;;;;;;;;;;5060681;28;20033;-86
2022/04/06 02:39:56;;;;;;;9.13;2.35;;;;;;;;;;5087734;28;20027;-86
2022/04/06 02:42:22;;;;;;;13.80;2.42;;;;;;;;;;5064596;28;20054;-86
2022/04/06 02:44:49;;;;;;;15.68;2.75;;;;;;;;;;5066220;28;20093;-87
2022/04/06 02:47:15;;;;;;;16.10;2.75;;;;;;;;;;5062095;28;20029;-86
2022/04/06 02:49:41;;;;;;;15.45;2.63;;;;;;;;;;5067700;28;20495;-86
2022/04/06 02:52:08;;;;;;;14.00;2.45;;;;;;;;;;5070821;28;20615;-87
2022/04/06 02:54:35;;;;;;;13.80;1.95;;;;;;;;;;5094059;28;20129;-87
2022/04/06 02:57:01;;;;;;;14.35;1.77;;;;;;;;;;5087432;28;20040;-87
2022/04/06 02:59:27;;;;;;;9.77;2.30;;;;;;;;;;5060055;28;20430;-87
2022/04/06 03:01:54;;;;;;;8.88;1.45;;;;;;;;;;5094362;28;20025;-88
2022/04/06 03:04:20;;;;;;;8.82;1.52;;;;;;;;;;5092487;28;20391;-87
2022/04/06 03:06:46;;;;;;;13.30;1.90;;;;;;;;;;5072116;28;20029;-86
2022/04/06 03:09:12;;;;;;;9.77;1.20;;;;;;;;;;5069095;28;20566;-86
2022/04/06 03:11:39;;;;;;;14.07;1.70;;;;;;;;;;5070739;28;20490;-86
2022/04/06 03:14:05;;;;;;;13.82;1.40;;;;;;;;;;5068537;28;20540;-86
2022/04/06 03:16:34;;;;;;;14.85;1.90;;;;;;;;;;5060072;28;20041;-86
2022/04/06 03:19:00;;;;;;;12.82;1.90;;;;;;;;;;5063128;28;20029;-86
2022/04/06 03:21:26;;;;;;;16.60;2.05;;;;;;;;;;5065606;28;20028;-86
2022/04/06 03:23:53;;;;;;;13.20;2.38;;;;;;;;;;5063916;28;20036;-85
2022/04/06 03:26:19;;;;;;;23.98;2.50;;;;;;;;;;5063040;28;20597;-86
2022/04/06 03:28:45;;;;;;;18.13;2.63;;;;;;;;;;4718945;28;10000085;-86
2022/04/06 03:31:12;;;;;;;16.20;2.58;;;;;;;;;;5072245;28;20700;-85
2022/04/06 03:33:38;;;;;;;18.67;3.70;;;;;;;;;;5070715;28;20043;-86
2022/04/06 03:36:04;;;;;;;29.85;3.70;;;;;;;;;;5075339;28;20101;-87
2022/04/06 03:38:31;;;;;;;28.48;3.58;;;;;;;;;;5067576;28;20043;-85
2022/04/06 03:40:57;;;;;;;25.63;3.10;;;;;;;;;;5069171;28;20109;-86
2022/04/06 03:43:23;;;;;;;19.10;3.20;;;;;;;;;;5062681;28;20033;-87
2022/04/06 03:45:50;;;;;;;31.42;4.40;;;;;;;;;;5066731;28;20032;-86
2022/04/06 03:48:17;;;;;;;19.90;3.53;;;;;;;;;;5063640;28;20035;-87
2022/04/06 03:50:44;;;;;;;26.63;3.30;;;;;;;;;;5070208;28;20451;-86
2022/04/06 03:53:10;;;;;;;25.75;3.00;;;;;;;;;;5072967;28;20032;-86
2022/04/06 03:55:36;;;;;;;20.02;2.78;;;;;;;;;;5073400;28;20028;-86
2022/04/06 03:58:03;;;;;;;22.40;2.67;;;;;;;;;;5069983;28;20035;-86
2022/04/06 04:00:29;;;;;;;16.83;2.08;;;;;;;;;;5063181;28;20033;-85
2022/04/06 04:02:59;;;;;;;15.63;2.63;;;;;;;;;;5092547;28;20074;-85
2022/04/06 04:05:26;;;;;;;13.18;1.98;;;;;;;;;;5063895;28;20530;-85
2022/04/06 04:07:57;;;;;;;17.70;3.05;;;;;;;;;;5073579;28;20125;-85
2022/04/06 04:10:23;;;;;;;28.35;2.50;;;;;;;;;;5074489;28;20043;-84
2022/04/06 04:12:53;;;;;;;19.02;2.17;;;;;;;;;;5064382;28;20457;-85
2022/04/06 04:15:19;;;;;;;19.63;2.45;;;;;;;;;;5071355;28;20430;-87
2022/04/06 04:17:46;;;;;;;20.95;2.90;;;;;;;;;;5066836;28;20035;-87
2022/04/06 04:20:13;;;;;;;13.77;2.75;;;;;;;;;;5086984;28;20565;-86
2022/04/06 04:22:48;;;;;;;14.63;1.50;;;;;;;;;;5076089;28;20047;-86
2022/04/06 04:25:15;;;;;;;11.60;2.25;;;;;;;;;;5056559;28;20033;-86
2022/04/06 04:27:41;;;;;;;16.85;2.00;;;;;;;;;;5074088;28;20484;-85
2022/04/06 04:30:13;;;;;;;14.95;2.10;;;;;;;;;;5066695;28;20035;-87
2022/04/06 04:32:39;;;;;;;15.05;2.20;;;;;;;;;;5071707;28;20119;-85
2022/04/06 04:35:24;;;;;;;25.20;2.83;;;;;;;;;;5074472;28;20123;-86
2022/04/06 04:37:51;;;;;;;22.55;2.78;;;;;;;;;;5060137;28;20037;-86
2022/04/06 04:40:19;;;;;;;25.27;4.50;;;;;;;;;;5073585;28;20028;-85
2022/04/06 04:43:15;;;;;;;17.98;4.35;;;;;;;;;;5072094;28;20039;-87
2022/04/06 04:45:47;;;;;;;19.20;3.95;;;;;;;;;;5003856;28;20488;-85
2022/04/06 04:48:14;;;;;;;17.17;3.00;;;;;;;;;;5022365;28;20068;-86
2022/04/06 05:13:44;;;;;;;17.25;2.60;;;;;;;;;;4736703;27;10001542;-84
2022/04/06 05:16:10;;;;;;;15.23;2.40;;;;;;;;;;5074106;28;20036;-86
2022/04/06 05:18:38;;;;;;;19.27;3.60;;;;;;;;;;5083430;28;20017;-86
2022/04/06 05:21:07;;;;;;;19.88;4.10;;;;;;;;;;5070256;28;20045;-87
2022/04/06 05:23:43;;;;;;;16.52;4.35;;;;;;;;;;5076876;28;20036;-86
2022/04/06 05:26:09;;;;;;;22.27;4.30;;;;;;;;;;5058130;28;20017;-86
2022/04/06 05:28:35;;;;;;;17.60;4.20;;;;;;;;;;5068768;28;20025;-86
2022/04/06 05:31:02;;;;;;;17.10;4.30;;;;;;;;;;5068643;28;20396;-85
2022/04/06 05:33:30;;;;;;;22.73;4.47;;;;;;;;;;5056109;28;20124;-86
2022/04/06 05:35:56;;;;;;;23.92;5.10;;;;;;;;;;5068172;28;20035;-86
2022/04/06 05:38:30;;;;;;;21.45;4.82;;;;;;;;;;5065503;28;20041;-87
2022/04/06 05:40:57;;;;;;;29.63;4.65;;;;;;;;;;5055269;28;20025;-85
2022/04/06 05:43:23;;;;;;;13.00;3.28;;;;;;;;;;5055704;28;20579;-86
2022/04/06 05:45:52;;;;;;;13.70;3.85;;;;;;;;;;5054414;28;20353;-86
2022/04/06 05:48:19;;;;;;;11.80;2.42;;;;;;;;;;5068215;28;20021;-86
2022/04/06 05:50:53;;;;;;;17.35;3.05;;;;;;;;;;5067907;28;20479;-86
2022/04/06 05:53:20;;;;;;;11.65;3.00;;;;;;;;;;5068307;28;20028;-88
2022/04/06 05:55:48;;;;;;;16.10;2.90;;;;;;;;;;5064408;28;20032;-86
2022/04/06 05:58:15;;;;;;;10.65;1.90;;;;;;;;;;5056874;28;20032;-87
2022/04/06 06:00:44;;;;;;;10.35;2.38;;;;;;;;;;5071680;28;20038;-86
2022/04/06 06:03:10;;;;;;;16.60;2.72;;;;;;;;;;5060894;28;20531;-87
2022/04/06 06:05:45;;;;;;;18.38;2.22;;;;;;;;;;5068323;28;20480;-87
2022/04/06 06:08:12;;;;;;;17.85;2.95;;;;;;;;;;5052191;28;20160;-87
2022/04/06 06:10:38;;;;;;;9.77;2.28;;;;;;;;;;5078948;28;20492;-87
2022/04/06 06:13:16;;;;;;;16.88;2.63;;;;;;;;;;5100692;28;20062;-87
2022/04/06 06:15:42;;;;;;;19.08;2.42;;;;;;;;;;5095900;28;20024;-88
2022/04/06 06:18:09;;;;;;;17.33;2.65;;;;;;;;;;5069398;28;20456;-87
2022/04/06 06:20:35;;;;;;;11.07;2.50;;;;;;;;;;5055941;28;20403;-88
2022/04/06 06:23:03;;;;;;;11.40;2.83;;;;;;;;;;5067149;28;20029;-87
2022/04/06 06:25:30;;;;;;;13.98;2.40;;;;;;;;;;5054605;28;20016;-88
2022/04/06 06:27:58;;;;;;;13.10;2.08;;;;;;;;;;5054443;28;20425;-88
2022/04/06 06:30:27;;;;;;;15.13;2.33;;;;;;;;;;5090140;28;20392;-87
2022/04/06 06:33:02;;;;;;;13.68;2.63;;;;;;;;;;5062982;28;20024;-88
2022/04/06 06:35:28;;;;;;;21.77;2.67;;;;;;;;;;5053601;28;20021;-87
2022/04/06 06:37:56;;;;;;;10.48;2.22;;;;;;;;;;5054519;28;20027;-88
2022/04/06 06:40:23;;;;;;;8.38;2.10;;;;;;;;;;5055366;28;20039;-88
2022/04/06 06:43:02;;;;;;;8.88;1.70;;;;;;;;;;5060715;28;20033;-88
2022/04/06 06:45:28;;;;;;;9.77;1.67;;;;;;;;;;5057433;28;20032;-88
2022/04/06 06:47:55;;;;;;;11.45;2.25;;;;;;;;;;5054921;28;20125;-88
2022/04/06 06:50:21;;;;;;;11.60;1.75;;;;;;;;;;5054622;28;20029;-87
2022/04/06 06:52:49;;;;;;;17.92;1.98;;;;;;;;;;5049918;28;20075;-87
2022/04/06 06:55:17;;;;;;;9.50;1.60;;;;;;;;;;5053696;28;20027;-88
2022/04/06 06:57:53;;;;;;;10.77;1.70;;;;;;;;;;5062346;28;20123;-88
2022/04/06 07:00:20;;;;;;;9.32;2.10;;;;;;;;;;5058000;28;20036;-88
2022/04/06 07:02:49;;;;;;;5.65;1.70;;;;;;;;;;5053482;28;20806;-87
2022/04/06 07:05:16;;;;;;;9.10;1.67;;;;;;;;;;5053195;28;20120;-87
2022/04/06 07:07:56;;;;;;;8.13;1.67;;;;;;;;;;5065368;28;20033;-87
2022/04/06 07:10:23;;;;;;;12.27;2.00;;;;;;;;;;5044349;28;20055;-87
2022/04/06 07:12:50;;;;;;;11.27;1.58;;;;;;;;;;5047611;28;20037;-88
2022/04/06 07:15:17;;;;;;;10.38;1.73;;;;;;;;;;5052957;28;20045;-88
2022/04/06 07:17:43;;;;;;;10.30;1.20;;;;;;;;;;5044746;28;20036;-88
2022/04/06 07:20:13;;;;;;;10.00;1.35;;;;;;;;;;5067468;28;20503;-87
2022/04/06 07:22:39;;;;;;;8.80;1.10;;;;;;;;;;5053366;28;20112;-89
2022/04/06 07:25:08;;;;;;;8.98;1.90;;;;;;;;;;5053671;28;20115;-87
2022/04/06 07:27:38;;;;;;;8.13;1.10;;;;;;;;;;5051907;28;20025;-88
2022/04/06 07:30:12;;;;;;;8.07;1.67;;;;;;;;;;5054539;28;20040;-87
2022/04/06 07:32:39;;;;;;;12.18;1.35;;;;;;;;;;5059644;28;20025;-88
2022/04/06 07:35:10;;;;;;;13.45;2.20;;;;;;;;;;5049607;28;20025;-88
2022/04/06 07:37:41;;;;;;;9.52;1.20;;;;;;;;;;5053656;28;20029;-88
2022/04/06 07:40:09;;;;;;;8.43;1.25;;;;;;;;;;5053231;28;20040;-87
2022/04/06 07:42:36;;;;;;;11.20;1.05;;;;;;;;;;5056265;28;20025;-88
2022/04/06 07:45:19;;;;;;;9.75;1.50;;;;;;;;;;5049091;28;20029;-87
2022/04/06 07:47:46;;;;;;;8.98;1.27;;;;;;;;;;5064865;28;20029;-88
2022/04/06 07:50:25;;;;;;;7.95;1.35;;;;;;;;;;5060044;28;20483;-89
2022/04/06 07:52:52;;;;;;;14.75;1.85;;;;;;;;;;5045948;28;20384;-88
2022/04/06 07:55:26;;;;;;;11.80;1.50;;;;;;;;;;5054362;28;20023;-87
2022/04/06 07:57:52;;;;;;;11.77;1.75;;;;;;;;;;5054154;28;20028;-88
2022/04/06 08:00:25;;;;;;;9.88;1.58;;;;;;;;;;5054554;28;20094;-88
2022/04/06 08:02:51;;;;;;;9.93;1.45;;;;;;;;;;5035000;28;20424;-88
2022/04/06 08:05:19;;;;;;;10.02;1.35;;;;;;;;;;5055932;28;20395;-87
2022/04/06 08:07:45;;;;;;;12.38;2.08;;;;;;;;;;5055287;28;20419;-88
2022/04/06 08:10:13;;;;;;;10.57;1.65;;;;;;;;;;5054323;28;20025;-87
2022/04/06 08:12:40;;;;;;;10.65;1.80;;;;;;;;;;5052922;28;20448;-88
2022/04/06 08:15:10;;;;;;;11.90;1.67;;;;;;;;;;5065449;28;20021;-88
2022/04/06 08:17:37;;;;;;;12.48;2.05;;;;;;;;;;5055960;28;20075;-88
2022/04/06 08:20:05;;;;;;;10.23;1.60;;;;;;;;;;5050192;28;20112;-89
2022/04/06 08:22:31;;;;;;;12.32;1.75;;;;;;;;;;5056881;28;20430;-87
2022/04/06 08:25:17;;;;;;;21.48;2.63;;;;;;;;;;5056789;28;20074;-88
2022/04/06 08:27:44;;;;;;;13.45;1.67;;;;;;;;;;5055154;28;20029;-88
2022/04/06 08:30:12;;;;;;;11.00;1.38;;;;;;;;;;5055051;28;20028;-88
2022/04/06 08:32:39;;;;;;;9.93;1.50;;;;;;;;;;5055838;28;20472;-88
2022/04/06 08:35:06;;;;;;;16.15;1.90;;;;;;;;;;5054956;28;20025;-88
2022/04/06 08:37:32;;;;;;;15.10;2.10;;;;;;;;;;5048523;28;20034;-88
2022/04/06 08:40:03;;;;;;;11.05;1.90;;;;;;;;;;5052888;28;20017;-88
2022/04/06 08:42:32;;;;;;;11.65;1.65;;;;;;;;;;5058566;28;20380;-88
2022/04/06 08:45:01;;;;;;;7.45;1.77;;;;;;;;;;5053464;28;20499;-88
2022/04/06 08:47:31;;;;;;;13.27;2.20;;;;;;;;;;5064669;28;20027;-87
2022/04/06 08:50:17;;;;;;;17.17;2.28;;;;;;;;;;5060450;28;20081;-88
2022/04/06 08:52:43;;;;;;;8.93;1.83;;;;;;;;;;5052930;28;20424;-89
2022/04/06 08:55:11;;;;;;;10.80;2.10;;;;;;;;;;5060258;28;20067;-87
2022/04/06 08:57:38;;;;;;;10.68;1.90;;;;;;;;;;5085020;28;20025;-88
2022/04/06 09:00:07;;;;;;;8.93;1.65;;;;;;;;;;5053924;28;20036;-87
2022/04/06 09:02:33;;;;;;;16.52;1.67;;;;;;;;;;5059757;28;20769;-87
2022/04/06 09:05:10;;;;;;;11.40;2.38;;;;;;;;;;5057631;28;20021;-87
2022/04/06 09:07:38;;;;;;;14.20;2.35;;;;;;;;;;5051376;28;20036;-87
2022/04/06 09:10:06;;;;;;;11.05;1.77;;;;;;;;;;5059674;28;20025;-88
2022/04/06 09:12:35;;;;;;;17.90;2.17;;;;;;;;;;5051322;28;20049;-86
2022/04/06 09:15:09;;;;;;;6.85;1.42;;;;;;;;;;5048824;28;20464;-87
2022/04/06 09:17:48;;;;;;;11.32;2.10;;;;;;;;;;5056723;28;20025;-87
2022/04/06 09:20:15;;;;;;;12.88;2.10;;;;;;;;;;5050545;28;20059;-89
2022/04/06 09:22:42;;;;;;;12.65;2.28;;;;;;;;;;5062342;28;20057;-88
2022/04/06 09:25:10;;;;;;;12.93;2.00;;;;;;;;;;5051016;28;20380;-87
2022/04/06 09:27:45;;;;;;;16.52;2.30;;;;;;;;;;5058980;28;20082;-88
2022/04/06 09:30:12;;;;;;;13.68;2.58;;;;;;;;;;5037571;28;20029;-87
2022/04/06 09:32:41;;;;;;;12.10;2.33;;;;;;;;;;5051142;28;20480;-88
2022/04/06 09:35:25;;;;;;;20.25;2.72;;;;;;;;;;5060648;28;20389;-87
2022/04/06 09:38:08;;;;;;;18.58;2.92;;;;;;;;;;5052090;28;20388;-89
2022/04/06 09:40:35;;;;;;;12.70;2.50;;;;;;;;;;5053668;28;20025;-88
2022/04/06 09:43:03;;;;;;;13.25;2.53;;;;;;;;;;5055096;28;20029;-88
2022/04/06 09:48:15;;;;;;;11.63;2.08;;;;;;;;;;5049696;28;20056;-89
2022/04/06 09:50:55;;;;;;;12.50;2.47;;;;;;;;;;5052406;28;20037;-87
2022/04/06 09:53:25;;;;;;;15.18;2.72;;;;;;;;;;5051588;28;20468;-87
2022/04/06 09:55:56;;;;;;;19.23;2.53;;;;;;;;;;5050564;28;20066;-87
2022/04/06 09:58:23;;;;;;;10.82;2.78;;;;;;;;;;5045978;28;20464;-88
2022/04/06 10:00:50;;;;;;;12.13;2.83;;;;;;;;;;5054249;28;20074;-88
2022/04/06 10:03:17;;;;;;;22.95;6.10;;;;;;;;;;5052779;28;20037;-88
2022/04/06 10:05:56;;;;;;;19.88;6.35;;;;;;;;;;5057077;28;20161;-87
2022/04/06 10:08:23;;;;;;;26.50;7.38;;;;;;;;;;5054259;28;20028;-87
2022/04/06 10:10:58;;;;;;;22.63;7.07;;;;;;;;;;5067963;28;20472;-88
2022/04/06 10:13:25;;;;;;;25.35;5.78;;;;;;;;;;5049976;28;20128;-88
2022/04/06 10:15:52;;;;;;;23.48;6.95;;;;;;;;;;5058989;28;20025;-87
2022/04/06 10:18:21;;;;;;;22.35;8.13;;;;;;;;;;5060196;28;20485;-88
2022/04/06 10:20:52;;;;;;;26.13;8.05;;;;;;;;;;5096819;28;20044;-87
2022/04/06 10:23:38;;;;;;;19.88;7.63;;;;;;;;;;5054489;28;20025;-88
2022/04/06 10:26:25;;;;;;;18.73;6.13;;;;;;;;;;5053932;28;20095;-87
2022/04/06 10:28:51;;;;;;;26.83;6.22;;;;;;;;;;5050759;28;20515;-87
2022/04/06 10:31:36;;;;;;;22.08;5.75;;;;;;;;;;5053617;28;20031;-88
2022/04/06 10:34:22;;;;;;;29.38;7.65;;;;;;;;;;5065257;28;20555;-88
2022/04/06 10:37:08;;;;;;;20.55;6.15;;;;;;;;;;5053929;28;20029;-88
2022/04/06 10:39:39;;;;;;;19.65;5.80;;;;;;;;;;5062356;28;20035;-89
2022/04/06 10:42:14;;;;;;;22.17;5.47;;;;;;;;;;5056365;28;20021;-88
2022/04/06 10:44:41;;;;;;;27.50;6.47;;;;;;;;;;5059675;28;20111;-88
2022/04/06 10:47:15;;;;;;;19.52;5.45;;;;;;;;;;5057484;28;20048;-87
2022/04/06 10:49:41;;;;;;;23.55;5.40;;;;;;;;;;5062637;28;20028;-86
2022/04/06 10:52:18;;;;;;;12.60;4.35;;;;;;;;;;5052420;28;20025;-88
2022/04/06 10:54:45;;;;;;;16.60;4.35;;;;;;;;;;5056264;28;20483;-87
2022/04/06 10:57:15;;;;;;;15.18;4.28;;;;;;;;;;5061562;28;20104;-87
2022/04/06 10:59:42;;;;;;;17.13;4.20;;;;;;;;;;5074409;28;20017;-86
2022/04/06 11:02:28;;;;;;;14.00;3.75;;;;;;;;;;5084507;28;20032;-87
2022/04/06 11:04:54;;;;;;;15.27;3.92;;;;;;;;;;5051098;28;20503;-87
2022/04/06 11:10:25;;;;;;;13.32;3.50;;;;;;;;;;5050301;28;20054;-87
2022/04/06 11:12:58;;;;;;;12.68;3.55;;;;;;;;;;5042978;28;20069;-88
2022/04/06 11:15:37;;;;;;;16.83;3.53;;;;;;;;;;5071010;28;20029;-89
2022/04/06 11:18:03;;;;;;;14.75;4.00;;;;;;;;;;5049140;28;20464;-86
2022/04/06 11:20:32;;;;;;;12.23;2.42;;;;;;;;;;5071668;28;20116;-87
2022/04/06 11:23:00;;;;;;;14.60;2.80;;;;;;;;;;5060100;28;20032;-87
2022/04/06 11:25:45;;;;;;;18.55;2.92;;;;;;;;;;5053864;28;21469;-85
2022/04/06 11:28:11;;;;;;;8.70;2.38;;;;;;;;;;5043286;28;20114;-86
2022/04/06 11:30:43;;;;;;;14.68;3.10;;;;;;;;;;5074679;28;20035;-86
2022/04/06 11:33:09;;;;;;;17.60;3.38;;;;;;;;;;5052823;28;20028;-86
2022/04/06 11:35:44;;;;;;;15.23;2.95;;;;;;;;;;5056314;28;20021;-87
2022/04/06 11:38:10;;;;;;;18.50;3.30;;;;;;;;;;5061353;28;20021;-87
2022/04/06 11:40:39;;;;;;;23.98;4.18;;;;;;;;;;5051935;28;20021;-87
2022/04/06 11:43:06;;;;;;;17.60;3.17;;;;;;;;;;5050906;28;20028;-87
2022/04/06 11:45:40;;;;;;;15.27;3.03;;;;;;;;;;5066511;28;20047;-86
2022/04/06 11:48:07;;;;;;;17.05;2.83;;;;;;;;;;5052513;28;20075;-87
2022/04/06 11:50:37;;;;;;;14.85;3.20;;;;;;;;;;5056005;28;20029;-86
2022/04/06 11:53:03;;;;;;;11.23;2.03;;;;;;;;;;5049742;28;20476;-86
2022/04/06 11:55:51;;;;;;;8.82;1.98;;;;;;;;;;5054243;28;20068;-85
2022/04/06 11:58:33;;;;;;;14.70;2.70;;;;;;;;;;4722446;28;10000095;-86
2022/04/06 12:01:02;;;;;;;11.65;2.35;;;;;;;;;;5046011;28;20021;-87
2022/04/06 12:03:29;;;;;;;20.90;2.33;;;;;;;;;;5051693;28;20017;-86
2022/04/06 12:05:59;;;;;;;13.68;1.92;;;;;;;;;;5050978;28;20033;-86
2022/04/06 12:08:25;;;;;;;10.70;1.77;;;;;;;;;;5044265;28;20039;-86
2022/04/06 12:10:56;;;;;;;13.18;2.17;;;;;;;;;;5072774;28;20037;-86
2022/04/06 12:13:27;;;;;;;12.07;1.55;;;;;;;;;;5051063;28;20493;-86
2022/04/06 12:15:55;;;;;;;8.82;2.15;;;;;;;;;;5047479;28;20116;-86
2022/04/06 12:18:24;;;;;;;10.27;2.08;;;;;;;;;;5051266;28;20032;-85
2022/04/06 12:20:50;;;;;;;17.23;2.47;;;;;;;;;;5051167;28;20029;-85
2022/04/06 12:23:43;;;;;;;10.07;1.85;;;;;;;;;;5051790;28;20427;-85
2022/04/06 12:26:13;;;;;;;11.65;2.10;;;;;;;;;;5037422;28;20102;-85
2022/04/06 12:28:39;;;;;;;15.50;2.47;;;;;;;;;;5048776;28;20097;-85
2022/04/06 12:31:07;;;;;;;14.05;2.25;;;;;;;;;;5052679;28;20120;-86
2022/04/06 12:33:35;;;;;;;16.38;2.35;;;;;;;;;;4718264;28;9999935;-85
2022/04/06 12:36:14;;;;;;;18.35;2.35;;;;;;;;;;5054542;28;20044;-85
2022/04/06 12:38:41;;;;;;;11.35;2.47;;;;;;;;;;5058877;28;20028;-86
2022/04/06 12:41:14;;;;;;;12.95;2.38;;;;;;;;;;5048552;28;20075;-86
2022/04/06 12:43:41;;;;;;;11.98;2.65;;;;;;;;;;5061033;28;20436;-85
2022/04/06 12:46:07;;;;;;;14.18;2.65;;;;;;;;;;5053845;28;20017;-86
2022/04/06 12:48:34;;;;;;;12.52;2.45;;;;;;;;;;5054610;28;20024;-86
2022/04/06 12:51:17;;;;;;;14.27;2.10;;;;;;;;;;5055434;28;20028;-85
2022/04/06 12:53:47;;;;;;;18.52;2.65;;;;;;;;;;5041501;28;20376;-85
2022/04/06 12:56:14;;;;;;;22.27;4.30;;;;;;;;;;5061311;28;20028;-84
2022/04/06 12:58:40;;;;;;;25.63;3.53;;;;;;;;;;5051002;28;20029;-85
2022/04/06 13:01:09;;;;;;;19.48;3.20;;;;;;;;;;5053493;28;20472;-86
2022/04/06 13:03:36;;;;;;;12.82;2.45;;;;;;;;;;5052298;28;20104;-86
2022/04/06 13:06:06;;;;;;;13.00;2.75;;;;;;;;;;5054210;28;20032;-86
2022/04/06 13:08:32;;;;;;;13.40;3.42;;;;;;;;;;5054368;28;20063;-86
2022/04/06 13:11:05;;;;;;;23.17;5.50;;;;;;;;;;5051300;28;20102;-86
2022/04/06 13:13:35;;;;;;;22.23;5.18;;;;;;;;;;5060956;28;20524;-87
2022/04/06 13:16:02;;;;;;;20.58;5.60;;;;;;;;;;5051825;28;20025;-88
2022/04/06 13:18:29;;;;;;;20.77;5.47;;;;;;;;;;5050044;28;20021;-85
2022/04/06 13:20:55;;;;;;;18.65;5.63;;;;;;;;;;5046684;28;20839;-86
2022/04/06 13:23:22;;;;;;;29.30;7.50;;;;;;;;;;5049175;28;20484;-85
2022/04/06 13:25:49;;;;;;;30.15;8.00;;;;;;;;;;4720657;28;10000541;-85
2022/04/06 13:28:16;;;;;;;26.08;6.88;;;;;;;;;;5047615;28;20033;-85
2022/04/06 13:30:42;;;;;;;31.70;8.15;;;;;;;;;;5050380;28;20491;-85
2022/04/06 13:33:09;;;;;;;31.63;8.38;;;;;;;;;;5052279;28;20036;-85
2022/04/06 13:35:35;;;;;;;32.33;8.25;;;;;;;;;;5059250;28;20452;-85
2022/04/06 13:38:26;;;;;;;30.75;6.85;;;;;;;;;;5051650;28;20013;-85
2022/04/06 13:41:16;;;;;;;34.15;10.93;;;;;;;;;;5047958;28;20033;-85
2022/04/06 13:43:42;;;;;;;49.05;19.95;;;;;;;;;;5048797;28;20043;-83
2022/04/06 13:46:08;;;;;;;59.25;21.98;;;;;;;;;;5064850;28;20411;-85
2022/04/06 13:48:36;;;;;;;30.83;11.82;;;;;;;;;;5052137;28;20044;-84
2022/04/06 13:51:05;;;;;;;44.58;10.10;;;;;;;;;;5054546;28;20031;-90
2022/04/06 13:53:43;;;;;;;40.85;11.52;;;;;;;;;;5057956;28;20037;-91
2022/04/06 13:56:09;;;;;;;35.05;12.30;;;;;;;;;;5054421;28;20438;-90
2022/04/06 13:58:39;;;;;;;39.20;12.15;;;;;;;;;;5056349;28;20498;-92
2022/04/06 14:01:05;;;;;;;46.08;10.63;;;;;;;;;;5071725;28;20048;-90
2022/04/06 14:03:33;;;;;;;27.20;9.95;;;;;;;;;;5058170;28;20476;-90
2022/04/06 14:06:00;;;;;;;29.42;10.88;;;;;;;;;;5054668;28;20078;-90
2022/04/06 14:08:40;;;;;;;29.77;11.13;;;;;;;;;;5063274;28;20033;-89
2022/04/06 14:11:07;;;;;;;38.08;9.35;;;;;;;;;;5055587;28;20029;-89
2022/04/06 14:13:33;;;;;;;33.22;9.15;;;;;;;;;;5054476;28;20049;-90
2022/04/06 14:16:23;;;;;;;27.05;7.57;;;;;;;;;;5055603;28;20372;-89
2022/04/06 14:18:52;;;;;;;30.77;7.72;;;;;;;;;;5055140;28;20510;-90
2022/04/06 14:21:29;;;;;;;36.40;8.30;;;;;;;;;;5061178;28;20033;-90
2022/04/06 14:23:55;;;;;;;28.48;8.40;;;;;;;;;;5055305;28;20033;-88
2022/04/06 14:26:32;;;;;;;27.63;8.38;;;;;;;;;;5055120;28;20479;-90
2022/04/06 14:28:58;;;;;;;28.20;7.88;;;;;;;;;;5058157;28;20586;-90
2022/04/06 14:31:30;;;;;;;24.42;7.13;;;;;;;;;;5053445;28;20053;-89
2022/04/06 14:33:56;;;;;;;26.95;7.97;;;;;;;;;;5057787;28;20040;-89
2022/04/06 14:37:01;;;;;;;19.80;6.75;;;;;;;;;;5061271;28;20028;-90
2022/04/06 14:39:27;;;;;;;24.33;7.65;;;;;;;;;;5032478;28;20025;-90
2022/04/06 14:41:54;;;;;;;28.40;7.65;;;;;;;;;;5018856;28;20017;-89
2022/04/06 14:44:22;;;;;;;26.10;7.18;;;;;;;;;;5023890;28;20026;-89
2022/04/06 14:46:48;;;;;;;26.70;7.47;;;;;;;;;;5069510;28;20036;-89
2022/04/06 14:49:14;;;;;;;26.08;7.55;;;;;;;;;;5062384;28;20025;-90
2022/04/06 14:51:41;;;;;;;23.45;7.20;;;;;;;;;;5069444;28;20028;-90
2022/04/06 14:54:14;;;;;;;20.65;7.65;;;;;;;;;;5061162;28;21020;-90
2022/04/06 14:56:41;;;;;;;34.20;7.53;;;;;;;;;;5065950;28;20033;-89
2022/04/06 14:59:24;;;;;;;21.17;6.35;;;;;;;;;;5054189;28;20028;-91
2022/04/06 15:01:50;;;;;;;21.83;6.85;;;;;;;;;;5053728;28;20365;-90
2022/04/06 15:04:18;;;;;;;25.45;6.22;;;;;;;;;;5062923;28;20469;-91
2022/04/06 15:06:45;;;;;;;22.23;5.65;;;;;;;;;;5057508;28;20060;-90
2022/04/06 15:09:11;;;;;;;19.33;5.70;;;;;;;;;;5053767;28;20029;-89
2022/04/06 15:11:38;;;;;;;26.48;5.22;;;;;;;;;;5061725;28;20021;-91
2022/04/06 15:14:04;;;;;;;20.15;4.57;;;;;;;;;;5053187;28;20045;-89
2022/04/06 15:16:37;;;;;;;36.53;5.55;;;;;;;;;;5046812;28;20032;-88
2022/04/06 15:19:04;;;;;;;18.67;4.68;;;;;;;;;;5041456;28;20029;-89